George Allen — WDF9749 — position and weather

sailwx.info

Track history (hours):
 
Tides and Currents Weather Stations Pressure Air Temp Water Temp Dewpoint Dewpoint Depression Visibility Wind Speed Wind Dir Waves Ship Positions

George Allen

Owner: Blessey Enterprises, Inc., Harahan, LA. More information available from US FCC via Universal Licensing System and Coast Guard Vessel Documentation Center.

Last reported at 2017-Feb-20 06:31 UTC. Time now 2017-Feb-20 15:22 UTC.
Position N 29°50' W 093°57'.

Length 23 m; draft 3.5 m.

Type: Towing. MMSI: 367508440.

Date/timePositionNaut miles runAvg speedWind from/ knotsBaromVisibWave heightAir tempDewpointWater temp
2017-Feb-20 06:31N 29°50' W 093°57'8 0.5
2017-Feb-19 12:06N 29°57' W 093°52'0 0.0
2017-Feb-19 11:17N 29°57' W 093°52'0 0.0
2017-Feb-19 10:33N 29°57' W 093°52'0 0.0
2017-Feb-19 09:15N 29°57' W 093°52'0 0.0
2017-Feb-19 05:33N 29°57' W 093°52'0 0.0
2017-Feb-19 04:23N 29°57' W 093°52'65 2.1
2017-Feb-17 21:26N 29°45' W 095°06'0 0.0
2017-Feb-17 20:34N 29°45' W 095°06'0 0.0
2017-Feb-17 19:33N 29°45' W 095°06'0 0.0
2017-Feb-17 18:33N 29°45' W 095°06'0 0.0
2017-Feb-17 17:33N 29°45' W 095°06'0 0.0
2017-Feb-17 16:28N 29°45' W 095°06'0 0.0
2017-Feb-17 15:34N 29°45' W 095°06'0 0.0
2017-Feb-17 14:33N 29°45' W 095°06'0 0.0
2017-Feb-17 13:33N 29°45' W 095°06'0 0.0
2017-Feb-17 10:31N 29°45' W 095°06'0 0.0
2017-Feb-17 09:29N 29°45' W 095°06'0 0.0
2017-Feb-17 07:32N 29°45' W 095°06'0 0.0
2017-Feb-17 06:26N 29°45' W 095°06'0 0.0
2017-Feb-17 05:33N 29°45' W 095°06'0 0.0
2017-Feb-17 04:33N 29°45' W 095°06'0 0.0
2017-Feb-17 03:33N 29°45' W 095°06'0 0.0
2017-Feb-17 02:32N 29°45' W 095°06'0 0.1
2017-Feb-17 01:33N 29°45' W 095°06'1 0.0
2017-Feb-16 03:09N 29°46' W 095°07'1 1.7
2017-Feb-16 02:33N 29°45' W 095°06'3 2.8
2017-Feb-16 01:33N 29°44' W 095°03'5 5.4
2017-Feb-16 00:33N 29°40' W 094°59'7 6.6
2017-Feb-15 23:34N 29°34' W 094°55'7 6.9
2017-Feb-15 22:33N 29°28' W 094°51'  
Track history (hours):
 
Tides and Currents Weather Stations Pressure Air Temp Water Temp Dewpoint Dewpoint Depression Visibility Wind Speed Wind Dir Waves Ship Positions

George Allen

Owner: Blessey Enterprises, Inc., Harahan, LA. More information available from US FCC via Universal Licensing System and Coast Guard Vessel Documentation Center.

Last reported at 2017-Feb-20 06:31 UTC. Time now 2017-Feb-20 15:22 UTC.
Position N 29°50' W 093°57'.

Length 23 m; draft 3.5 m.

Type: Towing. MMSI: 367508440.

Date/timePositionNaut miles runAvg speedWind from/ knotsBaromVisibWave heightAir tempDewpointWater temp
2017-Feb-20 06:31N 29°50' W 093°57'8 0.5
2017-Feb-19 12:06N 29°57' W 093°52'0 0.0
2017-Feb-19 11:17N 29°57' W 093°52'0 0.0
2017-Feb-19 10:33N 29°57' W 093°52'0 0.0
2017-Feb-19 09:15N 29°57' W 093°52'0 0.0
2017-Feb-19 05:33N 29°57' W 093°52'0 0.0
2017-Feb-19 04:23N 29°57' W 093°52'65 2.1
2017-Feb-17 21:26N 29°45' W 095°06'0 0.0
2017-Feb-17 20:34N 29°45' W 095°06'0 0.0
2017-Feb-17 19:33N 29°45' W 095°06'0 0.0
2017-Feb-17 18:33N 29°45' W 095°06'0 0.0
2017-Feb-17 17:33N 29°45' W 095°06'0 0.0
2017-Feb-17 16:28N 29°45' W 095°06'0 0.0
2017-Feb-17 15:34N 29°45' W 095°06'0 0.0
2017-Feb-17 14:33N 29°45' W 095°06'0 0.0
2017-Feb-17 13:33N 29°45' W 095°06'0 0.0
2017-Feb-17 10:31N 29°45' W 095°06'0 0.0
2017-Feb-17 09:29N 29°45' W 095°06'0 0.0
2017-Feb-17 07:32N 29°45' W 095°06'0 0.0
2017-Feb-17 06:26N 29°45' W 095°06'0 0.0
2017-Feb-17 05:33N 29°45' W 095°06'0 0.0
2017-Feb-17 04:33N 29°45' W 095°06'0 0.0
2017-Feb-17 03:33N 29°45' W 095°06'0 0.0
2017-Feb-17 02:32N 29°45' W 095°06'0 0.1
2017-Feb-17 01:33N 29°45' W 095°06'1 0.0
2017-Feb-16 03:09N 29°46' W 095°07'1 1.7
2017-Feb-16 02:33N 29°45' W 095°06'3 2.8
2017-Feb-16 01:33N 29°44' W 095°03'5 5.4
2017-Feb-16 00:33N 29°40' W 094°59'7 6.6
2017-Feb-15 23:34N 29°34' W 094°55'7 6.9
2017-Feb-15 22:33N 29°28' W 094°51'  

Dump ship's entire track history